Portada
METAR-TAF:

METAR-TAF

Aeroports :

Shahrekord, Iran

latitud: 32-20N, longitud: 050-51E, altitud: 2078 m

Observació

L'informe es va fer fa 56 minuts, a les 10:00 UTC
Vent 8 kt del Nord-Oest
Temperatura 10°C
Humitat 62%
Pressió 1015 hPa
Visibilitat 10 km o més
Escasses núvols a una alçada de 3500 ft, Cumulonimbus.
Núvols disperses a una alçada de 4000 ft
Cel ennuvolat a una alçada de 9000 ft

METAR: OIFS 271000Z 31008KT 9999 FEW035CB SCT040 BKN090 10/03 Q1015

Hora: 15:26 (10:56 UTC)


TAF: manca

Observacions i pronòstics meteorològics de més de 4000 aeroports (METAR i TAF).

Les estacions disponibles són els punts grocs i vermells al mapa.

Posi el ratolí al punt desitjat per veure el nom de l'estació.

Feu clic per veure les observacions i els pronòstics meteorològics.

Per canviar el mapa: feu clic els botons verds amb una creu de color negre per apropar; al botó verd amb un guió per allunyar la imatge; o en les fletxes verdes per a mapes adjacents.


METAR-TAF: